Time;durP1;ratioP1;P1;durP2;ratioP2;P2;SDS_P1;SDS_P2;PMS_P1;PMS_P2;Temp;Humidity;BMP_temperature;BMP_pressure;BME280_temperature;BME280_humidity;BME280_pressure;Samples;Min_cycle;Max_cycle;Signal;HPM_P1;HPM_P2
2021/08/31 00:00:11;;;;;;;;;;;;;;;;;;5009084;28;19933;-69
2021/08/31 00:02:38;;;;;;;;;;;;;;;;;;5007257;28;20296;-69
2021/08/31 00:05:05;;;;;;;;;;;;;;;;;;5009979;28;19926;-69
2021/08/31 00:07:32;;;;;;;;;;;;;;;;;;5007317;28;19929;-69
2021/08/31 00:09:59;;;;;;;;;;;;;;;;;;5008623;28;19933;-67
2021/08/31 00:12:28;;;;;;;;;;;;;;;;;;5008617;28;20144;-68
2021/08/31 00:14:55;;;;;;;;;;;;;;;;;;5009700;28;19925;-68
2021/08/31 00:17:22;;;;;;;;;;;;;;;;;;5008510;28;20305;-69
2021/08/31 00:19:49;;;;;;;;;;;;;;;;;;5009288;28;19931;-66
2021/08/31 00:22:16;;;;;;;;;;;;;;;;;;5007032;28;20524;-68
2021/08/31 00:24:43;;;;;;;;;;;;;;;;;;5010887;28;20297;-67
2021/08/31 00:27:10;;;;;;;;;;;;;;;;;;5009079;28;19937;-68
2021/08/31 00:29:37;;;;;;;;;;;;;;;;;;5006153;28;19932;-69
2021/08/31 00:32:04;;;;;;;;;;;;;;;;;;5009700;28;19926;-69
2021/08/31 00:34:31;;;;;;;;;;;;;;;;;;5007997;28;19932;-69
2021/08/31 00:36:58;;;;;;;;;;;;;;;;;;5009671;28;20381;-67
2021/08/31 00:39:25;;;;;;;;;;;;;;;;;;5008798;28;20016;-68
2021/08/31 00:41:52;;;;;;;;;;;;;;;;;;5008481;28;19929;-68
2021/08/31 00:44:19;;;;;;;;;;;;;;;;;;5009496;28;19925;-67
2021/08/31 00:46:46;;;;;;;;;;;;;;;;;;5006990;28;19994;-68
2021/08/31 00:49:13;;;;;;;;;;;;;;;;;;5007608;28;20389;-68
2021/08/31 00:51:40;;;;;;;;;;;;;;;;;;5008978;28;19936;-68
2021/08/31 00:54:07;;;;;;;;;;;;;;;;;;5003765;28;19925;-68
2021/08/31 00:56:33;;;;;;;;;;;;;;;;;;5008504;28;19933;-69
2021/08/31 00:59:00;;;;;;;;;;;;;;;;;;5009414;28;20017;-69
2021/08/31 01:01:27;;;;;;;;;;;;;;;;;;5008544;28;19925;-69
2021/08/31 01:03:54;;;;;;;;;;;;;;;;;;5010849;28;19925;-69
2021/08/31 01:06:21;;;;;;;;;;;;;;;;;;5011320;28;19933;-67
2021/08/31 01:08:48;;;;;;;;;;;;;;;;;;5012658;28;20305;-68
2021/08/31 01:11:15;;;;;;;;;;;;;;;;;;5012734;28;19929;-68
2021/08/31 01:13:42;;;;;;;;;;;;;;;;;;5012604;28;19930;-67
2021/08/31 01:16:09;;;;;;;;;;;;;;;;;;5010019;28;19926;-68
2021/08/31 01:18:36;;;;;;;;;;;;;;;;;;5010730;28;19929;-68
2021/08/31 01:21:03;;;;;;;;;;;;;;;;;;5011891;28;19945;-68
2021/08/31 01:23:30;;;;;;;;;;;;;;;;;;5011576;28;19932;-67
2021/08/31 01:25:57;;;;;;;;;;;;;;;;;;5012341;28;19925;-67
2021/08/31 01:28:24;;;;;;;;;;;;;;;;;;5011203;28;20313;-68
2021/08/31 01:30:51;;;;;;;;;;;;;;;;;;5009178;28;20386;-69
2021/08/31 01:33:17;;;;;;;;;;;;;;;;;;5010928;28;20152;-68
2021/08/31 01:35:44;;;;;;;;;;;;;;;;;;5013318;28;19925;-68
2021/08/31 01:38:11;;;;;;;;;;;;;;;;;;5013279;28;19940;-69
2021/08/31 01:40:38;;;;;;;;;;;;;;;;;;5012610;28;20301;-69
2021/08/31 01:43:05;;;;;;;;;;;;;;;;;;5007943;28;20409;-69
2021/08/31 01:45:32;;;;;;;;;;;;;;;;;;5003044;28;19940;-69
2021/08/31 01:47:59;;;;;;;;;;;;;;;;;;5012924;28;19925;-68
2021/08/31 01:50:26;;;;;;;;;;;;;;;;;;5011967;28;19949;-69
2021/08/31 01:52:53;;;;;;;;;;;;;;;;;;5009882;28;19980;-69
2021/08/31 01:55:20;;;;;;;;;;;;;;;;;;5010575;28;19935;-69
2021/08/31 01:57:47;;;;;;;;;;;;;;;;;;5011424;28;19942;-68
2021/08/31 02:00:14;;;;;;;;;;;;;;;;;;5012327;28;19935;-69
2021/08/31 02:02:41;;;;;;;;;;;;;;;;;;5010585;28;19939;-69
2021/08/31 02:05:08;;;;;;;;;;;;;;;;;;5012393;28;19925;-69
2021/08/31 02:07:34;;;;;;;;;;;;;;;;;;5011024;28;20083;-69
2021/08/31 02:10:01;;;;;;;;;;;;;;;;;;5010763;28;19933;-69
2021/08/31 02:12:28;;;;;;;;;;;;;;;;;;5011119;28;20019;-69
2021/08/31 02:14:55;;;;;;;;;;;;;;;;;;5003439;28;19933;-69
2021/08/31 02:17:22;;;;;;;;;;;;;;;;;;5009634;28;19929;-69
2021/08/31 02:19:49;;;;;;;;;;;;;;;;;;5010714;28;20397;-70
2021/08/31 02:22:16;;;;;;;;;;;;;;;;;;5011894;28;19933;-69
2021/08/31 02:24:43;;;;;;;;;;;;;;;;;;5008766;28;19933;-68
2021/08/31 02:27:10;;;;;;;;;;;;;;;;;;5010697;28;19932;-69
2021/08/31 02:29:37;;;;;;;;;;;;;;;;;;5008678;28;19929;-66
2021/08/31 02:32:05;;;;;;;;;;;;;;;;;;5011605;28;19925;-68
2021/08/31 02:34:32;;;;;;;;;;;;;;;;;;5007897;28;19971;-68
2021/08/31 02:36:59;;;;;;;;;;;;;;;;;;5012878;28;19930;-69
2021/08/31 02:39:26;;;;;;;;;;;;;;;;;;5010692;28;20028;-69
2021/08/31 02:41:53;;;;;;;;;;;;;;;;;;5007280;28;20056;-68
2021/08/31 02:44:19;;;;;;;;;;;;;;;;;;5008360;28;19934;-68
2021/08/31 02:46:46;;;;;;;;;;;;;;;;;;5009782;28;19932;-70
2021/08/31 02:49:13;;;;;;;;;;;;;;;;;;5009943;28;19941;-69
2021/08/31 02:51:40;;;;;;;;;;;;;;;;;;5010309;28;19984;-68
2021/08/31 02:54:07;;;;;;;;;;;;;;;;;;5010783;28;19932;-67
2021/08/31 02:56:34;;;;;;;;;;;;;;;;;;5008641;28;19925;-68
2021/08/31 02:59:01;;;;;;;;;;;;;;;;;;5007232;28;20393;-69
2021/08/31 03:01:31;;;;;;;;;;;;;;;;;;5010190;28;20309;-68
2021/08/31 03:03:58;;;;;;;;;;;;;;;;;;5010226;28;19930;-68
2021/08/31 03:06:25;;;;;;;;;;;;;;;;;;5008545;28;19925;-68
2021/08/31 03:08:52;;;;;;;;;;;;;;;;;;5009247;28;19933;-68
2021/08/31 03:11:19;;;;;;;;;;;;;;;;;;5010632;28;19933;-69
2021/08/31 03:13:46;;;;;;;;;;;;;;;;;;5009428;28;19932;-69
2021/08/31 03:16:13;;;;;;;;;;;;;;;;;;5010638;28;19925;-68
2021/08/31 03:18:40;;;;;;;;;;;;;;;;;;5009338;28;19951;-69
2021/08/31 03:21:07;;;;;;;;;;;;;;;;;;5010093;28;19929;-68
2021/08/31 03:23:34;;;;;;;;;;;;;;;;;;5010081;28;19925;-68
2021/08/31 03:26:01;;;;;;;;;;;;;;;;;;5008957;28;19926;-68
2021/08/31 03:28:28;;;;;;;;;;;;;;;;;;5007269;28;19926;-69
2021/08/31 03:30:56;;;;;;;;;;;;;;;;;;5008749;28;19926;-69
2021/08/31 03:33:23;;;;;;;;;;;;;;;;;;5006685;28;19933;-67
2021/08/31 03:35:50;;;;;;;;;;;;;;;;;;5010560;28;19932;-67
2021/08/31 03:38:17;;;;;;;;;;;;;;;;;;5008396;28;20302;-67
2021/08/31 03:40:43;;;;;;;;;;;;;;;;;;5009919;28;20408;-67
2021/08/31 03:43:10;;;;;;;;;;;;;;;;;;5033511;23;19932;-66
2021/08/31 03:45:37;;;;;;;;;;;;;;;;;;5028320;28;19929;-65
2021/08/31 03:48:04;;;;;;;;;;;;;;;;;;5028109;28;20337;-66
2021/08/31 03:50:31;;;;;;;;;;;;;;;;;;5025529;28;20355;-65
2021/08/31 03:52:58;;;;;;;;;;;;;;;;;;5025936;28;19940;-65
2021/08/31 03:55:25;;;;;;;;;;;;;;;;;;5023012;28;19926;-66
2021/08/31 03:57:52;;;;;;;;;;;;;;;;;;5026001;28;19925;-65
2021/08/31 04:00:19;;;;;;;;;;;;;;;;;;5026639;28;19932;-66
2021/08/31 04:02:46;;;;;;;;;;;;;;;;;;5022992;28;20305;-65
2021/08/31 04:05:13;;;;;;;;;;;;;;;;;;5027992;28;19925;-65
2021/08/31 04:07:40;;;;;;;;;;;;;;;;;;5024032;28;19929;-65
2021/08/31 04:10:07;;;;;;;;;;;;;;;;;;5025650;28;19925;-65
2021/08/31 04:12:33;;;;;;;;;;;;;;;;;;5028410;28;20278;-66
2021/08/31 04:15:02;;;;;;;;;;;;;;;;;;5025224;28;19952;-66
2021/08/31 04:17:29;;;;;;;;;;;;;;;;;;5023522;28;19944;-66
2021/08/31 04:19:56;;;;;;;;;;;;;;;;;;5024150;28;20369;-64
2021/08/31 04:22:23;;;;;;;;;;;;;;;;;;5028756;28;19925;-64
2021/08/31 04:24:50;;;;;;;;;;;;;;;;;;5027128;28;19925;-64
2021/08/31 04:27:17;;;;;;;;;;;;;;;;;;5022507;28;19934;-64
2021/08/31 04:29:44;;;;;;;;;;;;;;;;;;5024846;28;19979;-65
2021/08/31 04:32:11;;;;;;;;;;;;;;;;;;5021956;28;20312;-66
2021/08/31 04:34:38;;;;;;;;;;;;;;;;;;5023098;28;19929;-65
2021/08/31 04:37:05;;;;;;;;;;;;;;;;;;5026867;28;19925;-65
2021/08/31 04:39:32;;;;;;;;;;;;;;;;;;5029418;28;19926;-65
2021/08/31 04:42:02;;;;;;;;;;;;;;;;;;5029747;28;19925;-65
2021/08/31 04:44:29;;;;;;;;;;;;;;;;;;5028480;28;20313;-64
2021/08/31 04:46:56;;;;;;;;;;;;;;;;;;5030630;28;19925;-65
2021/08/31 04:49:23;;;;;;;;;;;;;;;;;;5031124;28;19932;-65
2021/08/31 04:51:50;;;;;;;;;;;;;;;;;;5029042;28;19932;-66
2021/08/31 04:54:17;;;;;;;;;;;;;;;;;;5033810;28;20336;-65
2021/08/31 04:56:44;;;;;;;;;;;;;;;;;;5029897;28;19925;-66
2021/08/31 04:59:11;;;;;;;;;;;;;;;;;;5031732;28;19925;-65
2021/08/31 05:01:38;;;;;;;;;;;;;;;;;;5027353;28;19945;-66
2021/08/31 05:04:05;;;;;;;;;;;;;;;;;;5029984;28;19925;-65
2021/08/31 05:06:32;;;;;;;;;;;;;;;;;;5029817;28;19925;-65
2021/08/31 05:08:59;;;;;;;;;;;;;;;;;;5029981;28;20016;-65
2021/08/31 05:11:26;;;;;;;;;;;;;;;;;;5031066;28;20008;-65
2021/08/31 05:13:53;;;;;;;;;;;;;;;;;;5030631;28;20285;-65
2021/08/31 05:16:20;;;;;;;;;;;;;;;;;;5033796;28;19925;-65
2021/08/31 05:18:47;;;;;;;;;;;;;;;;;;5032120;28;19948;-66
2021/08/31 05:21:14;;;;;;;;;;;;;;;;;;5032897;28;20030;-65
2021/08/31 05:23:41;;;;;;;;;;;;;;;;;;5033818;28;20368;-65
2021/08/31 05:26:08;;;;;;;;;;;;;;;;;;5032754;28;19951;-66
2021/08/31 05:28:35;;;;;;;;;;;;;;;;;;5029849;28;19925;-66
2021/08/31 05:31:02;;;;;;;;;;;;;;;;;;5030206;28;20021;-66
2021/08/31 05:33:29;;;;;;;;;;;;;;;;;;5025487;28;19969;-66
2021/08/31 05:35:56;;;;;;;;;;;;;;;;;;5026728;28;19942;-66
2021/08/31 05:38:23;;;;;;;;;;;;;;;;;;5029613;28;20012;-66
2021/08/31 05:40:50;;;;;;;;;;;;;;;;;;5033958;28;19925;-66
2021/08/31 05:43:17;;;;;;;;;;;;;;;;;;5030830;28;20395;-66
2021/08/31 05:45:44;;;;;;;;;;;;;;;;;;5032362;28;19925;-66
2021/08/31 05:48:11;;;;;;;;;;;;;;;;;;5032947;28;19925;-66
2021/08/31 05:50:38;;;;;;;;;;;;;;;;;;5026126;28;19936;-66
2021/08/31 05:53:05;;;;;;;;;;;;;;;;;;5022487;28;19951;-66
2021/08/31 05:55:32;;;;;;;;;;;;;;;;;;5027977;28;19930;-66
2021/08/31 05:57:59;;;;;;;;;;;;;;;;;;5034366;28;19932;-66
2021/08/31 06:00:26;;;;;;;;;;;;;;;;;;5032242;28;19932;-66
2021/08/31 06:02:53;;;;;;;;;;;;;;;;;;5033718;28;19932;-66
2021/08/31 06:05:20;;;;;;;;;;;;;;;;;;5031453;28;19960;-66
2021/08/31 06:07:47;;;;;;;;;;;;;;;;;;5028843;28;19931;-66
2021/08/31 06:10:15;;;;;;;;;;;;;;;;;;5031737;28;19925;-66
2021/08/31 06:12:42;;;;;;;;;;;;;;;;;;5031086;28;19925;-66
2021/08/31 06:15:09;;;;;;;;;;;;;;;;;;5031877;28;20316;-66
2021/08/31 06:17:37;;;;;;;;;;;;;;;;;;5033350;28;19925;-66
2021/08/31 06:20:04;;;;;;;;;;;;;;;;;;5031120;28;19929;-66
2021/08/31 06:22:31;;;;;;;;;;;;;;;;;;5033087;28;19931;-66
2021/08/31 06:24:58;;;;;;;;;;;;;;;;;;5030846;28;19925;-66
2021/08/31 06:27:25;;;;;;;;;;;;;;;;;;5032899;28;19925;-66
2021/08/31 06:29:52;;;;;;;;;;;;;;;;;;5029300;28;19933;-66
2021/08/31 06:32:19;;;;;;;;;;;;;;;;;;5030950;28;19925;-66
2021/08/31 06:34:46;;;;;;;;;;;;;;;;;;5028814;28;19932;-66
2021/08/31 06:37:13;;;;;;;;;;;;;;;;;;5032003;28;20417;-66
2021/08/31 06:39:40;;;;;;;;;;;;;;;;;;5030119;28;19941;-66
2021/08/31 06:42:07;;;;;;;;;;;;;;;;;;5030163;28;20035;-66
2021/08/31 06:44:34;;;;;;;;;;;;;;;;;;5029474;28;20000;-66
2021/08/31 06:47:01;;;;;;;;;;;;;;;;;;5031181;28;19925;-66
2021/08/31 06:49:28;;;;;;;;;;;;;;;;;;5029184;28;19925;-66
2021/08/31 06:51:55;;;;;;;;;;;;;;;;;;5031847;28;19925;-66
2021/08/31 06:54:22;;;;;;;;;;;;;;;;;;5030882;28;19925;-66
2021/08/31 06:56:49;;;;;;;;;;;;;;;;;;5030041;28;19936;-66
2021/08/31 06:59:16;;;;;;;;;;;;;;;;;;5028830;28;19937;-66
2021/08/31 07:01:43;;;;;;;;;;;;;;;;;;5027037;28;20397;-66
2021/08/31 07:04:10;;;;;;;;;;;;;;;;;;5030061;28;19979;-66
2021/08/31 07:06:37;;;;;;;;;;;;;;;;;;5023281;28;19969;-64
2021/08/31 07:09:05;;;;;;;;;;;;;;;;;;5032286;28;19934;-65
2021/08/31 07:11:32;;;;;;;;;;;;;;;;;;5032129;28;20409;-65
2021/08/31 07:13:59;;;;;;;;;;;;;;;;;;5027794;28;19929;-65
2021/08/31 07:16:26;;;;;;;;;;;;;;;;;;5025375;28;20400;-65
2021/08/31 07:18:53;;;;;;;;;;;;;;;;;;5025314;28;19956;-64
2021/08/31 07:21:20;;;;;;;;;;;;;;;;;;5026380;28;20040;-65
2021/08/31 07:23:47;;;;;;;;;;;;;;;;;;5027724;28;19925;-65
2021/08/31 07:26:14;;;;;;;;;;;;;;;;;;5031491;28;19994;-64
2021/08/31 07:28:42;;;;;;;;;;;;;;;;;;5030838;28;19925;-64
2021/08/31 07:31:09;;;;;;;;;;;;;;;;;;5027873;28;19926;-65
2021/08/31 07:33:39;;;;;;;;;;;;;;;;;;5030185;28;20016;-65
2021/08/31 07:36:06;;;;;;;;;;;;;;;;;;5029966;28;20301;-65
2021/08/31 07:38:33;;;;;;;;;;;;;;;;;;5028111;28;19992;-65
2021/08/31 07:41:00;;;;;;;;;;;;;;;;;;5027128;28;20416;-65
2021/08/31 07:43:27;;;;;;;;;;;;;;;;;;5021664;28;19976;-65
2021/08/31 07:45:54;;;;;;;;;;;;;;;;;;5027996;28;19932;-65
2021/08/31 07:48:21;;;;;;;;;;;;;;;;;;5025315;28;20034;-65
2021/08/31 07:50:48;;;;;;;;;;;;;;;;;;5029943;28;19925;-65
2021/08/31 07:53:15;;;;;;;;;;;;;;;;;;5027571;28;19926;-65
2021/08/31 07:55:42;;;;;;;;;;;;;;;;;;5024378;28;20031;-65
2021/08/31 07:58:09;;;;;;;;;;;;;;;;;;5025988;28;20393;-66
2021/08/31 08:00:39;;;;;;;;;;;;;;;;;;5026115;28;19929;-65
2021/08/31 08:03:06;;;;;;;;;;;;;;;;;;5024763;28;20348;-65
2021/08/31 08:05:33;;;;;;;;;;;;;;;;;;5028361;28;20396;-66
2021/08/31 08:08:00;;;;;;;;;;;;;;;;;;5027800;28;19975;-66
2021/08/31 08:10:27;;;;;;;;;;;;;;;;;;5028400;28;20008;-65
2021/08/31 08:12:54;;;;;;;;;;;;;;;;;;5027860;28;19971;-66
2021/08/31 08:15:23;;;;;;;;;;;;;;;;;;5029809;28;19926;-65
2021/08/31 08:17:52;;;;;;;;;;;;;;;;;;5025087;28;20397;-65
2021/08/31 08:20:19;;;;;;;;;;;;;;;;;;5027299;28;19951;-66
2021/08/31 08:22:46;;;;;;;;;;;;;;;;;;5028807;28;19932;-66
2021/08/31 08:25:13;;;;;;;;;;;;;;;;;;5029112;28;19932;-66
2021/08/31 08:27:40;;;;;;;;;;;;;;;;;;5031325;28;19928;-66
2021/08/31 08:30:07;;;;;;;;;;;;;;;;;;5031112;28;19932;-66
2021/08/31 08:32:34;;;;;;;;;;;;;;;;;;5030290;28;20389;-67
2021/08/31 08:35:01;;;;;;;;;;;;;;;;;;5031166;28;19931;-66
2021/08/31 08:37:28;;;;;;;;;;;;;;;;;;5031328;28;19925;-66
2021/08/31 08:39:55;;;;;;;;;;;;;;;;;;5029688;28;19929;-66
2021/08/31 08:42:22;;;;;;;;;;;;;;;;;;5030632;28;20266;-66
2021/08/31 08:44:49;;;;;;;;;;;;;;;;;;5030441;28;19929;-66
2021/08/31 08:47:16;;;;;;;;;;;;;;;;;;5031279;28;20275;-66
2021/08/31 08:49:45;;;;;;;;;;;;;;;;;;5030782;28;19971;-66
2021/08/31 08:52:12;;;;;;;;;;;;;;;;;;5030700;28;20381;-66
2021/08/31 08:54:39;;;;;;;;;;;;;;;;;;5030816;28;20309;-66
2021/08/31 08:57:06;;;;;;;;;;;;;;;;;;5030751;28;19979;-66
2021/08/31 08:59:33;;;;;;;;;;;;;;;;;;5027626;28;19925;-66
2021/08/31 09:02:00;;;;;;;;;;;;;;;;;;5027658;28;19925;-66
2021/08/31 09:04:27;;;;;;;;;;;;;;;;;;5030513;28;19971;-66
2021/08/31 09:06:54;;;;;;;;;;;;;;;;;;5030491;28;19925;-66
2021/08/31 09:09:21;;;;;;;;;;;;;;;;;;5030469;28;19941;-65
2021/08/31 09:11:48;;;;;;;;;;;;;;;;;;5030769;28;19951;-66
2021/08/31 09:14:15;;;;;;;;;;;;;;;;;;5029517;28;20248;-65
2021/08/31 09:16:42;;;;;;;;;;;;;;;;;;5030433;28;19932;-65
2021/08/31 09:19:08;;;;;;;;;;;;;;;;;;5030540;28;19933;-65
2021/08/31 09:21:36;;;;;;;;;;;;;;;;;;5030716;28;19947;-65
2021/08/31 09:24:02;;;;;;;;;;;;;;;;;;5032561;28;19929;-65
2021/08/31 09:26:29;;;;;;;;;;;;;;;;;;5034196;28;20316;-65
2021/08/31 09:28:56;;;;;;;;;;;;;;;;;;5033834;28;20019;-65
2021/08/31 09:31:25;;;;;;;;;;;;;;;;;;5034182;28;20384;-65
2021/08/31 09:33:52;;;;;;;;;;;;;;;;;;5025892;28;20432;-64
2021/08/31 09:36:19;;;;;;;;;;;;;;;;;;5028285;28;20024;-65
2021/08/31 09:38:46;;;;;;;;;;;;;;;;;;5030769;28;20020;-65
2021/08/31 09:41:13;;;;;;;;;;;;;;;;;;5031657;28;19925;-64
2021/08/31 09:43:40;;;;;;;;;;;;;;;;;;5043195;23;20407;-70
2021/08/31 09:46:07;;;;;;;;;;;;;;;;;;5031599;28;19932;-68
2021/08/31 09:48:34;;;;;;;;;;;;;;;;;;5032229;28;19981;-67
2021/08/31 09:51:01;;;;;;;;;;;;;;;;;;5032383;28;19936;-67
2021/08/31 09:53:27;;;;;;;;;;;;;;;;;;5020907;28;20016;-68
2021/08/31 09:55:54;;;;;;;;;;;;;;;;;;5015468;28;19925;-68
2021/08/31 09:58:21;;;;;;;;;;;;;;;;;;5015593;28;19925;-67
2021/08/31 10:00:48;;;;;;;;;;;;;;;;;;5005558;28;20393;-68
2021/08/31 10:03:15;;;;;;;;;;;;;;;;;;5014001;28;20393;-68
2021/08/31 10:05:42;;;;;;;;;;;;;;;;;;5011835;28;19926;-67
2021/08/31 10:08:09;;;;;;;;;;;;;;;;;;5014131;28;19925;-68
2021/08/31 10:10:36;;;;;;;;;;;;;;;;;;5013570;28;20024;-68
2021/08/31 10:13:03;;;;;;;;;;;;;;;;;;5010606;28;19934;-67
2021/08/31 10:15:30;;;;;;;;;;;;;;;;;;5013738;28;19969;-68
2021/08/31 10:17:57;;;;;;;;;;;;;;;;;;5013592;28;19926;-68
2021/08/31 10:20:24;;;;;;;;;;;;;;;;;;5013750;28;19947;-69
2021/08/31 10:22:51;;;;;;;;;;;;;;;;;;5013184;28;19932;-67
2021/08/31 10:25:18;;;;;;;;;;;;;;;;;;5014026;28;19930;-67
2021/08/31 10:27:45;;;;;;;;;;;;;;;;;;5016874;28;20302;-67
2021/08/31 10:30:12;;;;;;;;;;;;;;;;;;5004100;28;19925;-67
2021/08/31 10:32:39;;;;;;;;;;;;;;;;;;5007770;28;19934;-66
2021/08/31 10:35:06;;;;;;;;;;;;;;;;;;5009435;28;19931;-67
2021/08/31 10:37:32;;;;;;;;;;;;;;;;;;5014653;28;19926;-67
2021/08/31 10:39:59;;;;;;;;;;;;;;;;;;5013557;28;19926;-67
2021/08/31 10:42:26;;;;;;;;;;;;;;;;;;5014466;28;19932;-66
2021/08/31 10:44:53;;;;;;;;;;;;;;;;;;5013329;28;20394;-67
2021/08/31 10:47:21;;;;;;;;;;;;;;;;;;5007891;28;20308;-66
2021/08/31 10:49:48;;;;;;;;;;;;;;;;;;5009435;28;19956;-66
2021/08/31 10:52:16;;;;;;;;;;;;;;;;;;5010215;28;19955;-66
2021/08/31 10:54:43;;;;;;;;;;;;;;;;;;5014678;28;19972;-67
2021/08/31 10:57:11;;;;;;;;;;;;;;;;;;5015537;28;19968;-66
2021/08/31 10:59:38;;;;;;;;;;;;;;;;;;5011722;28;20321;-68
2021/08/31 11:02:04;;;;;;;;;;;;;;;;;;5004888;28;19932;-68
2021/08/31 11:04:31;;;;;;;;;;;;;;;;;;5010649;28;20208;-68
2021/08/31 11:06:58;;;;;;;;;;;;;;;;;;5014417;28;19929;-66
2021/08/31 11:09:25;;;;;;;;;;;;;;;;;;5014812;28;19925;-66
2021/08/31 11:11:52;;;;;;;;;;;;;;;;;;5014600;28;20028;-66
2021/08/31 11:14:19;;;;;;;;;;;;;;;;;;5014145;28;19925;-67
2021/08/31 11:16:46;;;;;;;;;;;;;;;;;;5014971;28;20172;-67
2021/08/31 11:19:13;;;;;;;;;;;;;;;;;;5020577;28;19937;-67
2021/08/31 11:21:40;;;;;;;;;;;;;;;;;;5013208;28;19925;-67
2021/08/31 11:24:08;;;;;;;;;;;;;;;;;;5014229;28;19925;-68
2021/08/31 11:26:35;;;;;;;;;;;;;;;;;;5015246;28;20298;-67
2021/08/31 11:29:01;;;;;;;;;;;;;;;;;;5014658;28;20028;-67
2021/08/31 11:31:29;;;;;;;;;;;;;;;;;;5014451;28;19929;-67
2021/08/31 11:33:56;;;;;;;;;;;;;;;;;;5010420;28;20405;-68
2021/08/31 11:36:23;;;;;;;;;;;;;;;;;;5012213;28;19968;-66
2021/08/31 11:38:50;;;;;;;;;;;;;;;;;;5013956;28;19926;-67
2021/08/31 11:41:17;;;;;;;;;;;;;;;;;;5013135;28;19927;-67
2021/08/31 11:43:44;;;;;;;;;;;;;;;;;;5011439;28;19926;-66
2021/08/31 11:46:11;;;;;;;;;;;;;;;;;;5008934;28;19925;-67
2021/08/31 11:48:38;;;;;;;;;;;;;;;;;;5012833;28;20373;-67
2021/08/31 11:51:05;;;;;;;;;;;;;;;;;;5008948;28;19925;-67
2021/08/31 11:53:31;;;;;;;;;;;;;;;;;;5014552;28;20040;-67
2021/08/31 11:55:58;;;;;;;;;;;;;;;;;;5013088;28;20385;-68
2021/08/31 11:58:25;;;;;;;;;;;;;;;;;;5009431;28;20379;-68
2021/08/31 12:00:52;;;;;;;;;;;;;;;;;;5010528;28;20362;-67
2021/08/31 12:03:19;;;;;;;;;;;;;;;;;;5008405;28;19936;-68
2021/08/31 12:05:46;;;;;;;;;;;;;;;;;;5004687;28;19941;-67
2021/08/31 12:08:13;;;;;;;;;;;;;;;;;;5005224;28;19925;-66
2021/08/31 12:10:40;;;;;;;;;;;;;;;;;;5009945;28;20129;-67
2021/08/31 12:13:07;;;;;;;;;;;;;;;;;;5006318;28;19933;-67
2021/08/31 12:15:34;;;;;;;;;;;;;;;;;;5003875;28;20397;-67
2021/08/31 12:18:01;;;;;;;;;;;;;;;;;;5004826;28;19938;-66
2021/08/31 12:20:28;;;;;;;;;;;;;;;;;;5004092;28;19925;-67
2021/08/31 12:22:55;;;;;;;;;;;;;;;;;;5010827;28;19932;-68
2021/08/31 12:25:22;;;;;;;;;;;;;;;;;;5005021;28;19979;-67
2021/08/31 12:27:49;;;;;;;;;;;;;;;;;;5009806;28;20031;-66
2021/08/31 12:30:16;;;;;;;;;;;;;;;;;;5007498;28;19936;-66
2021/08/31 12:32:43;;;;;;;;;;;;;;;;;;5006195;28;19926;-66
2021/08/31 12:35:10;;;;;;;;;;;;;;;;;;5004255;28;19932;-68
2021/08/31 12:37:37;;;;;;;;;;;;;;;;;;5008562;28;20012;-66
2021/08/31 12:40:04;;;;;;;;;;;;;;;;;;5007494;28;19926;-66
2021/08/31 12:42:31;;;;;;;;;;;;;;;;;;5002677;28;19977;-66
2021/08/31 12:44:58;;;;;;;;;;;;;;;;;;5004767;28;19925;-66
2021/08/31 12:47:25;;;;;;;;;;;;;;;;;;5004110;28;20397;-68
2021/08/31 12:49:52;;;;;;;;;;;;;;;;;;5000335;28;19925;-68
2021/08/31 12:52:20;;;;;;;;;;;;;;;;;;5004782;28;20016;-69
2021/08/31 12:54:47;;;;;;;;;;;;;;;;;;5009533;28;20016;-67
2021/08/31 12:57:14;;;;;;;;;;;;;;;;;;5012007;28;19925;-71
2021/08/31 12:59:42;;;;;;;;;;;;;;;;;;5010694;28;19933;-67
2021/08/31 13:02:10;;;;;;;;;;;;;;;;;;5008495;28;20448;-68
2021/08/31 13:04:37;;;;;;;;;;;;;;;;;;5009074;28;19926;-70
2021/08/31 13:07:04;;;;;;;;;;;;;;;;;;5012630;28;20079;-67
2021/08/31 13:09:31;;;;;;;;;;;;;;;;;;5013088;28;19929;-68
2021/08/31 13:11:58;;;;;;;;;;;;;;;;;;5012212;28;19935;-69
2021/08/31 13:14:25;;;;;;;;;;;;;;;;;;5014716;28;19936;-68
2021/08/31 13:16:52;;;;;;;;;;;;;;;;;;5016807;28;20040;-68
2021/08/31 13:19:19;;;;;;;;;;;;;;;;;;5009127;28;19929;-67
2021/08/31 13:21:46;;;;;;;;;;;;;;;;;;5016795;28;19926;-68
2021/08/31 13:24:13;;;;;;;;;;;;;;;;;;5016517;28;20019;-67
2021/08/31 13:26:40;;;;;;;;;;;;;;;;;;5013625;28;19936;-66
2021/08/31 13:29:07;;;;;;;;;;;;;;;;;;5016497;28;19926;-67
2021/08/31 13:31:34;;;;;;;;;;;;;;;;;;5016452;28;19930;-66
2021/08/31 13:34:01;;;;;;;;;;;;;;;;;;5016718;28;19931;-69
2021/08/31 13:36:28;;;;;;;;;;;;;;;;;;5016987;28;19932;-67
2021/08/31 13:38:54;;;;;;;;;;;;;;;;;;5016663;28;19925;-67
2021/08/31 13:41:21;;;;;;;;;;;;;;;;;;5016249;28;20348;-67
2021/08/31 13:43:50;;;;;;;;;;;;;;;;;;5014461;28;19932;-66
2021/08/31 13:46:19;;;;;;;;;;;;;;;;;;5017705;28;19925;-68
2021/08/31 13:48:46;;;;;;;;;;;;;;;;;;5016824;28;19951;-67
2021/08/31 13:51:15;;;;;;;;;;;;;;;;;;5016042;28;20008;-68
2021/08/31 13:53:42;;;;;;;;;;;;;;;;;;5016602;28;19925;-68
2021/08/31 13:56:09;;;;;;;;;;;;;;;;;;5017019;28;19925;-67
2021/08/31 13:58:36;;;;;;;;;;;;;;;;;;5015866;28;20271;-66
2021/08/31 14:01:03;;;;;;;;;;;;;;;;;;5013909;28;19925;-67
2021/08/31 14:03:30;;;;;;;;;;;;;;;;;;5016002;28;19929;-66
2021/08/31 14:05:57;;;;;;;;;;;;;;;;;;5017152;28;20413;-66
2021/08/31 14:08:24;;;;;;;;;;;;;;;;;;5016531;28;19932;-67
2021/08/31 14:10:50;;;;;;;;;;;;;;;;;;5013496;28;19926;-68
2021/08/31 14:13:17;;;;;;;;;;;;;;;;;;5014051;28;19925;-67
2021/08/31 14:15:46;;;;;;;;;;;;;;;;;;5014181;28;20374;-67
2021/08/31 14:18:14;;;;;;;;;;;;;;;;;;5016430;28;20029;-66
2021/08/31 14:20:41;;;;;;;;;;;;;;;;;;5012881;28;19977;-68
2021/08/31 14:23:08;;;;;;;;;;;;;;;;;;5012867;28;20054;-68
2021/08/31 14:25:35;;;;;;;;;;;;;;;;;;5013832;28;19932;-68
2021/08/31 14:28:02;;;;;;;;;;;;;;;;;;5008700;28;19936;-66
2021/08/31 14:30:29;;;;;;;;;;;;;;;;;;5011632;28;19926;-67
2021/08/31 14:32:55;;;;;;;;;;;;;;;;;;5017075;28;19965;-66
2021/08/31 14:35:22;;;;;;;;;;;;;;;;;;5015350;28;20412;-66
2021/08/31 14:37:49;;;;;;;;;;;;;;;;;;5018130;28;19935;-67
2021/08/31 14:40:16;;;;;;;;;;;;;;;;;;5015231;28;20051;-68
2021/08/31 14:42:43;;;;;;;;;;;;;;;;;;5014037;28;19936;-67
2021/08/31 14:45:10;;;;;;;;;;;;;;;;;;5012271;28;20413;-69
2021/08/31 14:47:37;;;;;;;;;;;;;;;;;;5013514;28;19929;-67
2021/08/31 14:50:05;;;;;;;;;;;;;;;;;;5012416;28;20376;-66
2021/08/31 14:52:32;;;;;;;;;;;;;;;;;;5010441;28;19936;-68
2021/08/31 14:54:59;;;;;;;;;;;;;;;;;;5014692;28;20294;-68
2021/08/31 14:57:26;;;;;;;;;;;;;;;;;;5012983;28;20021;-67
2021/08/31 14:59:53;;;;;;;;;;;;;;;;;;5015737;28;19980;-67
2021/08/31 15:02:20;;;;;;;;;;;;;;;;;;5015096;28;20654;-68
2021/08/31 15:04:47;;;;;;;;;;;;;;;;;;5011100;28;20349;-67
2021/08/31 15:07:14;;;;;;;;;;;;;;;;;;5008161;28;19925;-70
2021/08/31 15:09:41;;;;;;;;;;;;;;;;;;5014494;28;20347;-67
2021/08/31 15:12:09;;;;;;;;;;;;;;;;;;5007816;28;19930;-67
2021/08/31 15:14:36;;;;;;;;;;;;;;;;;;5011145;28;19925;-68
2021/08/31 15:17:03;;;;;;;;;;;;;;;;;;5012257;28;19983;-68
2021/08/31 15:19:30;;;;;;;;;;;;;;;;;;5010515;28;20389;-70
2021/08/31 15:21:57;;;;;;;;;;;;;;;;;;5011560;28;19932;-67
2021/08/31 15:24:24;;;;;;;;;;;;;;;;;;5007993;28;20342;-67
2021/08/31 15:26:51;;;;;;;;;;;;;;;;;;5008778;28;19961;-67
2021/08/31 15:29:18;;;;;;;;;;;;;;;;;;5004448;28;19968;-68
2021/08/31 15:31:45;;;;;;;;;;;;;;;;;;5007399;28;19943;-67
2021/08/31 15:34:12;;;;;;;;;;;;;;;;;;5008788;28;20012;-68
2021/08/31 15:36:41;;;;;;;;;;;;;;;;;;5009176;28;20448;-67
2021/08/31 15:39:08;;;;;;;;;;;;;;;;;;5006074;28;19925;-68
2021/08/31 15:41:35;;;;;;;;;;;;;;;;;;5007207;28;20389;-68
2021/08/31 15:44:02;;;;;;;;;;;;;;;;;;5030253;23;20286;-72
2021/08/31 15:46:29;;;;;;;;;;;;;;;;;;5010603;28;20004;-72
2021/08/31 15:48:56;;;;;;;;;;;;;;;;;;5011021;28;20141;-73
2021/08/31 15:51:23;;;;;;;;;;;;;;;;;;5017541;28;19983;-71
2021/08/31 15:53:50;;;;;;;;;;;;;;;;;;5008846;28;20306;-71
2021/08/31 15:56:17;;;;;;;;;;;;;;;;;;5007462;28;20525;-72
2021/08/31 15:58:43;;;;;;;;;;;;;;;;;;5002890;28;19926;-72
2021/08/31 16:01:10;;;;;;;;;;;;;;;;;;5002393;28;20561;-72
2021/08/31 16:03:37;;;;;;;;;;;;;;;;;;5002028;28;20036;-73
2021/08/31 16:06:04;;;;;;;;;;;;;;;;;;5003931;28;20394;-70
2021/08/31 16:08:31;;;;;;;;;;;;;;;;;;5002272;28;20390;-72
2021/08/31 16:11:05;;;;;;;;;;;;;;;;;;5004662;28;19929;-73
2021/08/31 16:13:32;;;;;;;;;;;;;;;;;;5003993;28;19930;-71
2021/08/31 16:15:59;;;;;;;;;;;;;;;;;;5005608;28;19934;-70
2021/08/31 16:18:26;;;;;;;;;;;;;;;;;;5005156;28;19926;-70
2021/08/31 16:20:53;;;;;;;;;;;;;;;;;;5004258;28;19945;-71
2021/08/31 16:23:20;;;;;;;;;;;;;;;;;;5005229;28;20012;-72
2021/08/31 16:25:47;;;;;;;;;;;;;;;;;;5005951;28;19933;-74
2021/08/31 16:28:14;;;;;;;;;;;;;;;;;;5002907;28;20024;-72
2021/08/31 16:30:41;;;;;;;;;;;;;;;;;;5006700;28;19975;-72
2021/08/31 16:33:08;;;;;;;;;;;;;;;;;;5004029;28;19936;-71
2021/08/31 16:35:35;;;;;;;;;;;;;;;;;;5004263;28;19929;-73
2021/08/31 16:38:02;;;;;;;;;;;;;;;;;;5005330;28;20305;-73
2021/08/31 16:40:29;;;;;;;;;;;;;;;;;;5003866;28;20627;-73
2021/08/31 16:42:55;;;;;;;;;;;;;;;;;;5003323;28;20001;-72